Time;durP1;ratioP1;P1;durP2;ratioP2;P2;SDS_P1;SDS_P2;PMS_P1;PMS_P2;Temp;Humidity;BMP_temperature;BMP_pressure;BME280_temperature;BME280_humidity;BME280_pressure;Samples;Min_cycle;Max_cycle;Signal;HPM_P1;HPM_P2
2022/08/17 00:00:50;;;;;;;52.10;34.47;;;20.70;99.90;;;;;;4977392;28;20046;-60
2022/08/17 00:03:30;;;;;;;46.38;34.53;;;20.70;99.90;;;;;;4976978;28;20042;-59
2022/08/17 00:06:00;;;;;;;45.58;33.67;;;20.70;99.90;;;;;;4977208;28;20070;-59
2022/08/17 00:08:35;;;;;;;45.60;34.83;;;20.70;99.90;;;;;;4977187;28;20039;-60
2022/08/17 00:11:04;;;;;;;49.60;35.47;;;20.60;99.90;;;;;;4959795;28;20046;-60
2022/08/17 00:13:41;;;;;;;49.78;35.65;;;20.60;99.90;;;;;;4943819;28;20054;-60
2022/08/17 00:16:11;;;;;;;47.83;33.20;;;20.60;99.90;;;;;;4976682;28;20113;-59
2022/08/17 00:18:37;;;;;;;46.25;33.92;;;20.60;99.90;;;;;;4976770;28;20070;-60
2022/08/17 00:21:05;;;;;;;47.33;33.22;;;20.60;99.90;;;;;;4976506;28;20526;-60
2022/08/17 00:23:32;;;;;;;47.22;32.95;;;20.50;99.90;;;;;;4976693;28;20043;-60
2022/08/17 00:25:58;;;;;;;43.85;33.13;;;20.50;99.90;;;;;;4959376;28;20039;-60
2022/08/17 00:28:24;;;;;;;50.72;35.03;;;20.50;99.90;;;;;;4959210;28;20035;-60
2022/08/17 00:30:51;;;;;;;54.28;37.83;;;20.40;99.90;;;;;;4959324;28;20031;-59
2022/08/17 00:33:22;;;;;;;50.67;37.00;;;20.40;99.90;;;;;;4976660;28;20082;-59
2022/08/17 00:35:49;;;;;;;55.47;38.95;;;20.30;99.90;;;;;;4976625;28;20110;-59
2022/08/17 00:38:15;;;;;;;54.60;39.65;;;20.30;99.90;;;;;;4976454;28;20094;-59
2022/08/17 00:40:47;;;;;;;55.20;40.35;;;20.30;99.90;;;;;;4976426;28;20043;-59
2022/08/17 00:43:15;;;;;;;59.25;39.80;;;20.20;99.90;;;;;;4977819;28;20043;-59
2022/08/17 00:45:41;;;;;;;62.28;40.13;;;20.20;99.90;;;;;;4976308;28;20074;-59
2022/08/17 00:48:07;;;;;;;59.60;39.53;;;20.20;99.90;;;;;;4976672;28;20042;-59
2022/08/17 00:50:34;;;;;;;52.65;39.42;;;20.20;99.90;;;;;;4976196;28;20490;-59
2022/08/17 00:53:01;;;;;;;56.33;38.90;;;20.10;99.90;;;;;;4976200;28;20034;-59
2022/08/17 00:55:27;;;;;;;55.15;38.55;;;20.10;99.90;;;;;;4976057;28;20038;-60
2022/08/17 00:57:57;;;;;;;48.47;37.65;;;20.10;99.90;;;;;;4975902;28;20482;-61
2022/08/17 01:00:29;;;;;;;52.90;37.55;;;20.10;99.90;;;;;;4974788;28;20495;-65
2022/08/17 01:03:24;;;;;;;48.95;36.17;;;20.10;99.90;;;;;;4975935;28;20049;-61
2022/08/17 01:05:51;;;;;;;49.78;36.30;;;20.10;99.90;;;;;;4975923;28;20035;-61
2022/08/17 01:08:21;;;;;;;54.05;34.83;;;20.00;99.90;;;;;;4975792;28;20047;-63
2022/08/17 01:10:52;;;;;;;49.03;34.22;;;20.00;99.90;;;;;;4976017;28;20046;-61
2022/08/17 01:13:19;;;;;;;47.78;34.72;;;20.00;99.90;;;;;;4976004;28;20079;-61
2022/08/17 01:15:51;;;;;;;41.92;33.78;;;20.00;99.90;;;;;;4975918;28;20046;-61
2022/08/17 01:18:17;;;;;;;44.33;33.80;;;20.00;99.90;;;;;;4975886;28;20070;-62
2022/08/17 01:20:54;;;;;;;43.42;32.15;;;20.00;99.90;;;;;;4975440;28;20565;-62
2022/08/17 01:23:23;;;;;;;41.00;30.98;;;20.00;99.90;;;;;;4975735;28;20046;-61
2022/08/17 01:25:57;;;;;;;41.75;30.75;;;20.00;99.90;;;;;;4975668;28;20074;-61
2022/08/17 01:28:25;;;;;;;40.42;29.35;;;19.90;99.90;;;;;;4975650;28;20039;-60
2022/08/17 01:30:53;;;;;;;40.72;29.55;;;19.90;99.90;;;;;;4974742;28;20034;-60
2022/08/17 01:33:19;;;;;;;36.35;29.55;;;19.90;99.90;;;;;;4975126;28;20117;-61
2022/08/17 01:35:45;;;;;;;37.55;27.55;;;19.90;99.90;;;;;;4975584;28;20043;-61
2022/08/17 01:38:11;;;;;;;39.60;28.90;;;19.90;99.90;;;;;;4975143;28;20606;-61
2022/08/17 01:40:41;;;;;;;33.50;28.08;;;19.90;99.90;;;;;;4975427;28;20035;-60
2022/08/17 01:43:18;;;;;;;40.38;28.55;;;19.90;99.90;;;;;;4975669;28;20346;-60
2022/08/17 01:45:47;;;;;;;36.97;28.73;;;19.90;99.90;;;;;;4975111;28;20042;-60
2022/08/17 01:48:13;;;;;;;33.30;26.70;;;19.90;99.90;;;;;;4975305;28;20379;-60
2022/08/17 01:50:41;;;;;;;39.53;28.25;;;19.90;99.90;;;;;;4975036;28;20038;-60
2022/08/17 01:53:12;;;;;;;33.50;27.70;;;19.90;99.90;;;;;;4975029;28;20042;-60
2022/08/17 01:55:46;;;;;;;37.17;27.85;;;19.80;99.90;;;;;;4975380;28;20042;-60
2022/08/17 01:58:12;;;;;;;33.70;26.37;;;19.80;99.90;;;;;;4974941;28;20046;-60
2022/08/17 02:00:40;;;;;;;36.30;26.95;;;19.80;99.90;;;;;;4974926;28;20041;-60
2022/08/17 02:03:07;;;;;;;35.70;25.92;;;19.80;99.90;;;;;;4974996;28;20049;-60
2022/08/17 02:05:34;;;;;;;35.60;27.77;;;19.80;99.90;;;;;;4974850;28;20043;-61
2022/08/17 02:08:00;;;;;;;37.63;28.35;;;19.70;99.90;;;;;;4974999;28;20395;-60
2022/08/17 02:10:29;;;;;;;33.97;27.40;;;19.70;99.90;;;;;;4975240;28;20042;-60
2022/08/17 02:12:55;;;;;;;39.55;28.83;;;19.80;99.90;;;;;;4974970;28;20046;-60
2022/08/17 02:15:21;;;;;;;35.97;29.13;;;19.80;99.90;;;;;;4957702;28;20124;-60
2022/08/17 02:17:47;;;;;;;38.88;29.40;;;19.70;99.90;;;;;;4974865;28;20042;-61
2022/08/17 02:20:13;;;;;;;43.00;29.52;;;19.70;99.90;;;;;;4974444;28;20094;-60
2022/08/17 02:22:42;;;;;;;41.80;30.90;;;19.70;99.90;;;;;;4974579;28;20517;-60
2022/08/17 02:25:10;;;;;;;37.15;30.48;;;19.70;99.90;;;;;;4974552;28;20119;-60
2022/08/17 02:27:37;;;;;;;41.72;30.48;;;19.70;99.90;;;;;;4974787;28;20398;-59
2022/08/17 02:30:09;;;;;;;46.58;30.55;;;19.70;99.90;;;;;;4974693;28;20039;-59
2022/08/17 02:32:35;;;;;;;37.50;30.27;;;19.70;99.90;;;;;;4957279;28;20042;-59
2022/08/17 02:35:02;;;;;;;38.78;28.38;;;19.70;99.90;;;;;;4974648;28;20543;-59
2022/08/17 02:37:29;;;;;;;41.85;29.13;;;19.80;99.90;;;;;;4957141;28;20047;-59
2022/08/17 02:39:56;;;;;;;38.40;29.55;;;19.70;99.90;;;;;;4974548;28;20097;-59
2022/08/17 02:42:32;;;;;;;36.25;29.88;;;19.80;99.90;;;;;;4974348;28;20047;-59
2022/08/17 02:44:59;;;;;;;38.67;29.48;;;19.80;99.90;;;;;;4957446;28;20077;-59
2022/08/17 02:47:25;;;;;;;39.95;30.65;;;19.80;99.90;;;;;;4974374;28;20067;-59
2022/08/17 02:49:52;;;;;;;39.08;28.90;;;19.80;99.90;;;;;;4974392;28;20070;-59
2022/08/17 02:52:17;;;;;;;41.00;30.67;;;19.80;99.90;;;;;;4974124;28;20050;-59
2022/08/17 02:54:43;;;;;;;37.55;31.10;;;19.80;99.90;;;;;;4974305;28;20441;-59
2022/08/17 02:57:09;;;;;;;50.03;33.47;;;19.80;99.90;;;;;;4974384;28;20047;-59
2022/08/17 02:59:36;;;;;;;44.13;33.10;;;20.00;99.90;;;;;;4974069;28;20065;-59
2022/08/17 03:02:03;;;;;;;44.40;31.73;;;19.60;99.90;;;;;;4974300;28;20093;-59
2022/08/17 03:04:30;;;;;;;43.70;32.83;;;19.80;99.90;;;;;;4974294;28;20043;-59
2022/08/17 03:06:55;;;;;;;42.67;32.15;;;19.80;99.90;;;;;;4974119;28;20053;-59
2022/08/17 03:09:21;;;;;;;49.15;34.53;;;19.80;99.90;;;;;;4974209;28;20039;-59
2022/08/17 03:11:46;;;;;;;47.50;35.95;;;19.90;99.90;;;;;;4974336;28;20050;-59
2022/08/17 03:14:12;;;;;;;51.05;36.38;;;20.10;99.90;;;;;;4974111;28;20395;-59
2022/08/17 03:16:39;;;;;;;46.42;36.28;;;19.00;99.90;;;;;;4972885;28;20051;-59
2022/08/17 03:19:05;;;;;;;49.80;36.42;;;19.90;99.90;;;;;;4974069;28;20486;-61
2022/08/17 03:21:30;;;;;;;50.47;36.97;;;19.90;99.90;;;;;;4973892;28;20204;-60
2022/08/17 03:23:56;;;;;;;48.92;35.92;;;19.90;99.90;;;;;;4974229;28;20086;-60
2022/08/17 03:26:22;;;;;;;47.03;34.28;;;19.90;99.90;;;;;;4974182;28;20051;-60
2022/08/17 03:28:47;;;;;;;49.65;36.95;;;19.90;99.90;;;;;;4973990;28;20519;-60
2022/08/17 03:31:13;;;;;;;45.33;35.63;;;19.20;99.90;;;;;;4974180;28;20071;-60
2022/08/17 03:33:39;;;;;;;46.70;35.15;;;19.80;99.90;;;;;;4974008;28;20557;-60
2022/08/17 03:36:05;;;;;;;50.47;34.72;;;19.80;99.90;;;;;;4973897;28;20075;-60
2022/08/17 03:38:34;;;;;;;57.78;36.03;;;19.80;99.90;;;;;;4974146;28;20045;-60
2022/08/17 03:41:00;;;;;;;51.33;34.78;;;19.80;99.90;;;;;;4974031;28;20042;-60
2022/08/17 03:43:31;;;;;;;51.63;35.85;;;19.90;99.90;;;;;;4956521;28;20042;-60
2022/08/17 03:57:07;;;;;;;43.72;33.42;;;19.80;99.90;;;;;;4960130;28;20047;-60
2022/08/17 03:59:34;;;;;;;46.45;34.38;;;19.80;99.90;;;;;;4977192;28;20042;-60
2022/08/17 04:02:11;;;;;;;43.88;34.17;;;19.80;99.90;;;;;;4977230;28;20039;-60
2022/08/17 04:04:39;;;;;;;41.45;32.65;;;19.80;99.90;;;;;;4977218;28;20315;-60
2022/08/17 04:07:05;;;;;;;42.25;32.80;;;19.90;99.90;;;;;;4977034;28;20042;-60
2022/08/17 04:09:31;;;;;;;43.95;31.77;;;19.90;99.90;;;;;;4976833;28;20390;-60
2022/08/17 04:11:57;;;;;;;42.28;31.13;;;19.90;99.90;;;;;;4959802;28;20515;-59
2022/08/17 04:14:23;;;;;;;38.72;30.40;;;19.90;99.90;;;;;;4957649;28;20053;-61
2022/08/17 04:16:49;;;;;;;40.40;30.75;;;19.90;99.90;;;;;;4974920;28;20402;-60
2022/08/17 04:19:14;;;;;;;41.28;30.10;;;19.80;99.90;;;;;;4974969;28;20095;-60
2022/08/17 04:21:40;;;;;;;39.67;30.95;;;19.80;99.90;;;;;;4974732;28;20419;-61
2022/08/17 04:24:06;;;;;;;44.10;32.38;;;19.80;99.90;;;;;;4957304;28;20553;-60
2022/08/17 04:26:32;;;;;;;44.45;34.70;;;19.80;99.90;;;;;;4957607;28;20074;-61
2022/08/17 04:28:58;;;;;;;46.60;34.00;;;19.80;99.90;;;;;;4975977;28;20035;-61
2022/08/17 04:31:26;;;;;;;46.78;33.90;;;19.50;99.90;;;;;;4959413;28;20046;-61
2022/08/17 04:33:51;;;;;;;45.50;34.38;;;19.40;99.90;;;;;;4976441;28;20095;-61
2022/08/17 04:36:17;;;;;;;43.40;33.50;;;19.70;99.90;;;;;;4976565;28;20047;-61
2022/08/17 04:38:45;;;;;;;50.42;35.20;;;19.70;99.90;;;;;;4975846;28;20074;-61
2022/08/17 04:44:02;;;;;;;45.10;34.50;;;19.70;99.90;;;;;;4975196;28;20093;-60
2022/08/17 04:46:34;;;;;;;44.05;34.50;;;19.70;99.90;;;;;;4976352;28;20038;-61
2022/08/17 04:49:04;;;;;;;43.90;33.85;;;19.80;99.90;;;;;;4976275;28;20050;-59
2022/08/17 04:51:41;;;;;;;44.60;33.58;;;19.80;99.90;;;;;;4976145;28;20092;-59
2022/08/17 04:54:17;;;;;;;42.90;33.17;;;19.80;99.90;;;;;;4976484;28;20071;-60
2022/08/17 04:56:43;;;;;;;;;;;19.80;99.90;;;;;;4976649;28;20042;-59
2022/08/17 04:59:17;;;;;;;43.40;33.25;;;19.80;99.90;;;;;;4976159;28;19918;-59
2022/08/17 05:01:45;;;;;;;46.83;33.60;;;19.70;99.90;;;;;;4958898;28;20386;-59
2022/08/17 05:04:16;;;;;;;50.10;35.63;;;19.70;99.90;;;;;;4975138;28;20030;-60
2022/08/17 05:06:43;;;;;;;46.63;36.08;;;19.70;99.90;;;;;;4975881;28;20557;-59
2022/08/17 05:09:08;;;;;;;53.58;38.72;;;19.60;99.90;;;;;;4975935;28;20081;-60
2022/08/17 05:11:35;;;;;;;53.40;38.35;;;19.70;99.90;;;;;;4975952;28;20070;-61
2022/08/17 05:14:01;;;;;;;50.45;38.20;;;19.50;99.90;;;;;;4975550;28;20490;-60
2022/08/17 05:16:27;;;;;;;52.85;38.08;;;19.60;99.90;;;;;;4975757;28;20085;-60
2022/08/17 05:18:57;;;;;;;49.28;37.42;;;19.60;99.90;;;;;;4975632;28;20058;-60
2022/08/17 05:21:23;;;;;;;53.30;38.85;;;19.60;99.90;;;;;;4975557;28;20051;-60
2022/08/17 05:23:49;;;;;;;53.33;38.67;;;19.50;99.90;;;;;;4975588;28;20042;-60
2022/08/17 05:26:17;;;;;;;53.22;38.65;;;19.50;99.90;;;;;;4958227;28;20042;-60
2022/08/17 05:28:43;;;;;;;58.75;40.63;;;19.50;99.90;;;;;;4975393;28;20042;-59
2022/08/17 05:31:11;;;;;;;52.72;39.75;;;19.50;99.90;;;;;;4975642;28;20121;-59
2022/08/17 05:33:40;;;;;;;55.50;40.72;;;19.50;99.90;;;;;;4975516;28;20092;-59
2022/08/17 05:36:08;;;;;;;54.80;39.70;;;19.50;99.90;;;;;;4975513;28;20051;-60
2022/08/17 05:38:35;;;;;;;54.35;40.65;;;19.50;99.90;;;;;;4974093;28;20053;-60
2022/08/17 05:41:03;;;;;;;55.83;41.35;;;19.60;99.90;;;;;;4975073;28;20043;-59
2022/08/17 05:43:32;;;;;;;57.88;40.60;;;19.60;99.90;;;;;;4975124;28;20079;-59
2022/08/17 05:46:28;;;;;;;54.75;39.90;;;19.60;99.90;;;;;;4975306;28;20035;-59
2022/08/17 05:49:00;;;;;;;51.47;40.13;;;19.60;99.90;;;;;;4975129;28;20482;-59
2022/08/17 05:51:57;;;;;;;55.70;40.25;;;19.60;99.90;;;;;;4974999;28;20475;-60
2022/08/17 05:54:31;;;;;;;58.10;38.95;;;19.70;99.90;;;;;;4975183;28;20129;-60
2022/08/17 05:57:15;;;;;;;56.70;39.30;;;19.70;99.90;;;;;;4974084;28;20187;-59
2022/08/17 05:59:49;;;;;;;50.03;38.42;;;19.70;99.90;;;;;;4974945;28;20502;-59
2022/08/17 06:02:33;;;;;;;51.30;36.95;;;19.80;99.90;;;;;;4975078;28;20093;-60
2022/08/17 06:05:20;;;;;;;49.25;37.60;;;19.80;99.90;;;;;;4974890;28;20479;-59
2022/08/17 06:08:25;;;;;;;49.03;36.63;;;19.70;99.90;;;;;;4974819;28;20125;-61
2022/08/17 06:11:21;;;;;;;45.63;35.78;;;19.80;99.90;;;;;;4974741;28;20058;-61
2022/08/17 06:14:21;;;;;;;41.90;33.25;;;19.90;99.90;;;;;;4974855;28;20046;-60
2022/08/17 06:16:57;;;;;;;39.08;31.08;;;20.00;99.90;;;;;;4974333;28;20097;-60
2022/08/17 06:19:40;;;;;;;36.75;29.48;;;20.00;99.90;;;;;;4974584;28;20049;-61
2022/08/17 06:22:09;;;;;;;44.38;31.45;;;20.10;99.90;;;;;;4973257;28;20046;-61
2022/08/17 06:24:47;;;;;;;40.55;30.05;;;20.10;99.90;;;;;;4974589;28;20042;-61
2022/08/17 06:27:21;;;;;;;39.20;30.80;;;19.40;99.90;;;;;;4974359;28;20043;-60
2022/08/17 06:30:15;;;;;;;38.70;30.75;;;20.10;99.90;;;;;;4974436;28;20097;-60
2022/08/17 06:32:47;;;;;;;38.30;29.65;;;19.40;99.90;;;;;;4974335;28;20557;-61
2022/08/17 06:35:25;;;;;;;36.10;28.15;;;20.10;99.90;;;;;;4974291;28;20039;-60
2022/08/17 06:38:14;;;;;;;37.90;28.70;;;20.10;99.90;;;;;;4974589;28;20402;-60
2022/08/17 06:40:51;;;;;;;34.70;27.30;;;19.90;99.90;;;;;;4974415;28;20113;-60
2022/08/17 06:43:42;;;;;;;31.55;26.10;;;20.20;99.90;;;;;;4974423;28;20078;-59
2022/08/17 06:46:24;;;;;;;32.45;25.95;;;20.90;99.90;;;;;;4974527;28;20034;-61
2022/08/17 06:49:07;;;;;;;31.88;25.80;;;20.50;99.90;;;;;;4974320;28;20045;-59
2022/08/17 06:52:02;;;;;;;32.38;25.42;;;20.50;99.90;;;;;;4974278;28;20074;-59
2022/08/17 06:55:05;;;;;;;32.40;24.52;;;20.60;99.90;;;;;;4960387;28;20053;-59
2022/08/17 06:57:36;;;;;;;33.88;25.25;;;20.70;99.90;;;;;;4895801;29;20055;-59
2022/08/17 07:00:19;;;;;;;30.60;24.83;;;20.90;99.90;;;;;;4880345;29;20056;-59
2022/08/17 07:03:09;;;;;;;36.75;24.25;;;21.00;99.90;;;;;;4888219;29;20076;-59
2022/08/17 07:05:49;;;;;;;33.10;24.23;;;21.20;99.90;;;;;;4895775;29;20063;-59
2022/08/17 07:08:39;;;;;;;29.10;23.88;;;21.40;99.90;;;;;;4896006;29;20474;-59
2022/08/17 07:11:19;;;;;;;30.30;24.42;;;21.60;99.90;;;;;;4895820;29;20041;-60
2022/08/17 07:14:12;;;;;;;30.30;24.67;;;21.80;99.90;;;;;;4888157;29;20048;-60
2022/08/17 07:17:09;;;;;;;34.65;23.77;;;21.80;99.90;;;;;;4895782;29;20049;-59
2022/08/17 07:19:39;;;;;;;32.10;23.55;;;21.90;99.90;;;;;;4894301;29;20053;-59
2022/08/17 07:22:29;;;;;;;32.78;23.55;;;22.10;99.90;;;;;;4895654;29;20401;-60
2022/08/17 07:24:57;;;;;;;25.70;21.83;;;22.30;99.90;;;;;;4895607;29;20080;-61
2022/08/17 07:27:38;;;;;;;36.22;22.20;;;23.60;99.90;;;;;;4895617;29;20032;-61
2022/08/17 07:30:14;;;;;;;25.55;20.23;;;23.30;99.90;;;;;;4883680;29;20040;-61
2022/08/17 07:33:04;;;;;;;30.65;22.45;;;23.80;99.90;;;;;;4976901;28;20093;-61
2022/08/17 07:35:38;;;;;;;27.90;19.35;;;24.30;99.90;;;;;;4976860;28;20499;-60
2022/08/17 07:38:53;;;;;;;27.17;20.40;;;24.80;99.90;;;;;;4965687;28;20059;-60
2022/08/17 07:41:22;;;;;;;28.50;20.83;;;25.20;99.90;;;;;;4887657;29;20545;-61
2022/08/17 07:43:51;;;;;;;27.35;20.27;;;25.20;99.90;;;;;;4890731;29;20041;-61
2022/08/17 07:49:07;;;;;;;26.73;18.48;;;25.30;99.90;;;;;;4890795;29;20424;-61
2022/08/17 07:51:57;;;;;;;24.50;19.52;;;24.50;99.90;;;;;;4883821;29;20394;-61
2022/08/17 07:54:29;;;;;;;25.05;19.00;;;24.60;99.90;;;;;;4879688;29;20057;-60
2022/08/17 07:57:12;;;;;;;21.65;17.33;;;24.50;99.90;;;;;;4863734;29;20081;-61
2022/08/17 08:00:14;;;;;;;26.90;18.42;;;24.70;99.90;;;;;;4879209;29;20053;-59
2022/08/17 08:02:44;;;;;;;26.25;18.85;;;24.90;99.90;;;;;;4877371;29;20057;-59
2022/08/17 08:05:28;;;;;;;24.23;18.05;;;24.90;99.90;;;;;;4879484;29;20049;-59
2022/08/17 08:07:56;;;;;;;24.73;17.23;;;25.00;99.90;;;;;;4880082;29;20123;-58
2022/08/17 08:10:31;;;;;;;25.92;17.40;;;25.10;99.90;;;;;;4879858;29;20510;-58
2022/08/17 08:13:20;;;;;;;27.50;19.98;;;25.20;99.90;;;;;;4953803;28;20047;-58
2022/08/17 08:15:48;;;;;;;21.80;19.05;;;25.20;99.90;;;;;;4966422;28;20406;-59
2022/08/17 08:18:39;;;;;;;26.55;17.92;;;25.20;99.90;;;;;;4976738;28;20075;-58
2022/08/17 08:21:21;;;;;;;23.65;17.42;;;25.10;99.90;;;;;;4959164;28;20055;-57
2022/08/17 08:23:56;;;;;;;19.95;17.08;;;25.30;99.90;;;;;;4975073;28;20051;-58
2022/08/17 08:26:41;;;;;;;;;;;25.20;99.90;;;;;;4975824;28;20110;-57
2022/08/17 08:29:34;;;;;;;20.77;16.50;;;25.10;99.90;;;;;;4975838;28;19921;-57
2022/08/17 08:32:21;;;;;;;24.33;17.05;;;25.00;99.90;;;;;;4975586;28;20063;-59
2022/08/17 08:35:21;;;;;;;24.08;17.42;;;24.90;99.90;;;;;;4976778;28;20045;-60
2022/08/17 08:38:14;;;;;;;21.40;17.63;;;24.80;99.90;;;;;;4975973;28;20057;-60
2022/08/17 08:40:52;;;;;;;27.95;18.55;;;24.70;99.90;;;;;;4975348;28;20390;-59
2022/08/17 08:43:47;;;;;;;22.02;17.50;;;24.60;99.90;;;;;;4975495;28;20491;-58
2022/08/17 08:46:50;;;;;;;27.95;18.73;;;24.50;99.90;;;;;;4975765;28;20098;-59
2022/08/17 08:49:38;;;;;;;24.52;18.67;;;24.30;99.90;;;;;;4976197;28;20054;-59
2022/08/17 08:52:12;;;;;;;24.52;19.15;;;24.10;99.90;;;;;;4956881;29;20070;-59
2022/08/17 08:54:57;;;;;;;25.63;17.95;;;24.00;99.90;;;;;;4956755;29;20516;-60
2022/08/17 08:57:41;;;;;;;22.20;16.83;;;24.00;99.90;;;;;;4956988;29;20130;-59
2022/08/17 09:00:15;;;;;;;19.60;17.23;;;24.00;99.90;;;;;;4956714;29;20550;-59
2022/08/17 09:02:53;;;;;;;24.20;18.20;;;24.00;99.90;;;;;;4948855;29;20050;-59
2022/08/17 09:05:42;;;;;;;21.63;17.83;;;24.00;99.90;;;;;;4968499;28;20047;-59
2022/08/17 09:08:15;;;;;;;27.08;18.42;;;24.00;99.90;;;;;;4975836;28;20049;-57
2022/08/17 09:10:43;;;;;;;25.45;20.17;;;24.00;99.90;;;;;;4975904;28;20043;-58
2022/08/17 09:13:34;;;;;;;31.63;18.98;;;24.00;99.90;;;;;;4975826;28;20042;-58
2022/08/17 09:16:08;;;;;;;23.83;17.33;;;24.00;99.90;;;;;;4975490;28;20043;-59
2022/08/17 09:18:38;;;;;;;25.63;19.92;;;24.00;99.90;;;;;;4962325;28;20097;-58
2022/08/17 09:21:27;;;;;;;28.90;19.15;;;23.90;99.90;;;;;;4972620;28;20054;-58
2022/08/17 09:24:22;;;;;;;22.40;18.38;;;23.90;99.90;;;;;;4975424;28;20051;-56
2022/08/17 09:27:07;;;;;;;25.83;17.58;;;24.00;99.90;;;;;;4975798;28;20035;-58
2022/08/17 09:29:38;;;;;;;20.87;18.37;;;24.00;99.90;;;;;;4974290;28;20043;-58
2022/08/17 09:32:36;;;;;;;24.70;17.83;;;24.10;99.90;;;;;;4975374;28;20039;-59
2022/08/17 09:35:19;;;;;;;23.92;19.67;;;24.20;99.90;;;;;;4975592;28;20043;-57
2022/08/17 09:38:13;;;;;;;21.35;18.25;;;24.20;99.90;;;;;;4975449;28;20039;-56
2022/08/17 09:40:56;;;;;;;20.10;17.02;;;24.20;99.90;;;;;;4975094;28;20132;-56
2022/08/17 09:43:29;;;;;;;21.63;15.98;;;24.40;99.90;;;;;;4975483;28;20039;-57
2022/08/17 09:46:02;;;;;;;20.00;14.05;;;25.70;99.90;;;;;;4975340;28;20129;-57
2022/08/17 09:48:43;;;;;;;20.40;12.93;;;23.60;99.90;;;;;;4975211;28;20483;-58
2022/08/17 09:51:14;;;;;;;14.98;12.93;;;24.70;99.90;;;;;;4974352;28;20035;-58
2022/08/17 09:53:40;;;;;;;19.17;14.25;;;24.80;99.90;;;;;;4975101;28;20495;-58
2022/08/17 09:56:24;;;;;;;17.90;15.45;;;25.00;99.90;;;;;;4957474;28;20622;-58
2022/08/17 09:58:59;;;;;;;18.00;14.20;;;25.20;99.90;;;;;;4974924;28;20487;-59
2022/08/17 10:01:53;;;;;;;21.55;13.77;;;25.20;99.90;;;;;;4974920;28;20395;-58
2022/08/17 10:04:48;;;;;;;16.60;13.43;;;25.20;99.90;;;;;;4974851;28;20054;-59
2022/08/17 10:07:24;;;;;;;18.20;13.55;;;25.20;99.90;;;;;;4968020;28;20495;-59
2022/08/17 10:10:11;;;;;;;19.50;14.15;;;25.20;99.90;;;;;;4973547;28;20042;-60
2022/08/17 10:12:58;;;;;;;17.17;14.07;;;25.10;99.90;;;;;;4951898;28;20050;-58
2022/08/17 10:15:51;;;;;;;15.30;13.60;;;25.00;99.90;;;;;;4970720;28;20514;-57
2022/08/17 10:18:23;;;;;;;16.15;13.70;;;25.00;99.90;;;;;;4974531;28;20078;-57
2022/08/17 10:26:11;;;;;;;18.17;13.63;;;24.90;99.90;;;;;;4974104;28;20058;-57
2022/08/17 10:26:30;;;;;;;15.02;12.95;;;24.80;99.90;;;;;;4955146;29;20124;-57
2022/08/17 10:29:05;;;;;;;14.98;12.40;;;24.80;99.90;;;;;;4955111;29;20587;-61
2022/08/17 10:31:45;;;;;;;17.98;13.90;;;24.90;99.90;;;;;;4949525;28;20121;-59
2022/08/17 10:34:28;;;;;;;15.80;12.27;;;24.90;99.90;;;;;;4968956;28;20047;-58
2022/08/17 10:37:24;;;;;;;14.65;12.02;;;24.90;99.90;;;;;;4970865;28;20046;-58
2022/08/17 10:40:17;;;;;;;17.70;13.93;;;25.00;99.90;;;;;;4971182;28;20038;-57
2022/08/17 10:42:57;;;;;;;20.33;15.32;;;25.00;99.90;;;;;;4970739;28;20447;-57
2022/08/17 10:45:32;;;;;;;20.45;15.10;;;25.00;99.90;;;;;;4970699;28;20042;-57
2022/08/17 10:48:01;;;;;;;17.88;14.25;;;25.00;99.90;;;;;;4968085;28;20509;-58
2022/08/17 10:50:52;;;;;;;19.25;14.93;;;25.00;99.90;;;;;;4955296;28;20047;-57
2022/08/17 10:53:42;;;;;;;22.17;15.88;;;25.10;99.90;;;;;;4934229;29;20054;-57
2022/08/17 10:56:11;;;;;;;18.63;16.42;;;25.30;99.90;;;;;;4952176;29;20039;-57
2022/08/17 10:58:48;;;;;;;17.92;15.93;;;25.40;99.90;;;;;;4957924;28;20038;-57
2022/08/17 11:01:15;;;;;;;20.48;15.10;;;25.40;99.90;;;;;;4965682;28;20058;-57
2022/08/17 11:03:53;;;;;;;25.65;14.80;;;25.60;99.90;;;;;;4947392;29;20491;-58
2022/08/17 11:06:36;;;;;;;19.60;14.93;;;25.90;99.90;;;;;;4955340;29;20043;-57
2022/08/17 11:09:50;;;;;;;23.08;15.15;;;26.00;99.90;;;;;;4957473;28;20402;-57
2022/08/17 11:12:31;;;;;;;20.15;16.02;;;26.10;99.90;;;;;;4973951;28;20712;-59
2022/08/17 11:15:23;;;;;;;20.92;16.30;;;26.20;99.90;;;;;;4973748;28;20043;-58
2022/08/17 11:18:00;;;;;;;27.10;17.52;;;26.20;99.90;;;;;;4974442;28;20070;-57
2022/08/17 11:20:29;;;;;;;25.17;18.50;;;26.20;99.90;;;;;;4972768;28;20047;-57
2022/08/17 11:23:03;;;;;;;24.88;18.30;;;26.20;99.90;;;;;;4971432;28;20047;-58
2022/08/17 11:25:50;;;;;;;22.23;18.17;;;26.00;99.90;;;;;;4973926;28;20126;-58
2022/08/17 11:28:33;;;;;;;25.85;19.52;;;25.80;99.90;;;;;;4973130;28;20058;-58
2022/08/17 11:31:06;;;;;;;26.80;20.75;;;25.70;99.90;;;;;;4972742;28;20070;-58
2022/08/17 11:33:32;;;;;;;25.35;20.77;;;25.60;99.90;;;;;;4972597;28;20050;-58
2022/08/17 11:36:33;;;;;;;29.92;22.30;;;25.40;99.90;;;;;;4956472;28;20096;-58
2022/08/17 11:39:21;;;;;;;31.63;23.92;;;25.40;99.90;;;;;;4969323;28;20137;-58
2022/08/17 11:42:00;;;;;;;33.08;24.13;;;25.20;99.90;;;;;;4973889;28;20043;-57
2022/08/17 11:44:44;;;;;;;32.70;23.25;;;25.10;99.90;;;;;;4973542;28;20189;-57
2022/08/17 11:53:04;;;;;;;40.95;26.45;;;24.70;99.90;;;;;;4953994;28;20057;-58
2022/08/17 11:55:34;;;;;;;34.70;26.25;;;24.70;99.90;;;;;;4953837;29;20147;-57
2022/08/17 11:58:28;;;;;;;34.90;26.77;;;24.70;99.90;;;;;;4936676;29;20078;-57
2022/08/17 12:00:58;;;;;;;39.97;28.75;;;24.70;99.90;;;;;;4953627;29;20051;-57
2022/08/17 12:03:36;;;;;;;42.65;29.63;;;24.70;99.90;;;;;;4959703;28;20086;-57
2022/08/17 12:06:38;;;;;;;41.97;30.98;;;24.60;99.90;;;;;;4972646;28;20047;-57
2022/08/17 12:09:19;;;;;;;46.53;30.60;;;24.60;99.90;;;;;;4968105;28;20118;-57
2022/08/17 12:11:55;;;;;;;38.40;29.85;;;24.50;99.90;;;;;;4965830;28;20050;-58
2022/08/17 12:14:28;;;;;;;41.63;30.73;;;24.50;99.90;;;;;;4972677;28;20054;-57
2022/08/17 12:17:22;;;;;;;45.05;30.35;;;24.50;99.90;;;;;;4973410;28;20045;-59
2022/08/17 12:19:49;;;;;;;44.08;31.70;;;24.60;99.90;;;;;;4970311;28;20086;-59
2022/08/17 12:22:31;;;;;;;42.00;31.75;;;24.60;99.90;;;;;;4973126;28;20045;-58
2022/08/17 12:25:15;;;;;;;41.17;31.35;;;24.60;99.90;;;;;;4973440;28;20418;-58
2022/08/17 12:27:46;;;;;;;44.67;32.80;;;24.60;99.90;;;;;;4973776;28;20400;-59
2022/08/17 12:30:16;;;;;;;43.92;31.98;;;24.60;99.90;;;;;;4973318;28;20041;-58
2022/08/17 12:32:46;;;;;;;39.45;31.38;;;24.60;99.90;;;;;;4958391;28;20061;-59
2022/08/17 12:35:34;;;;;;;43.50;31.42;;;24.60;99.90;;;;;;4974311;28;20573;-58
2022/08/17 12:38:00;;;;;;;45.38;33.63;;;24.50;99.90;;;;;;4973337;28;20065;-57
2022/08/17 12:40:31;;;;;;;42.33;31.92;;;24.50;99.90;;;;;;4979498;28;20114;-58
2022/08/17 12:43:17;;;;;;;40.50;31.77;;;24.50;99.90;;;;;;4975359;28;20054;-58
2022/08/17 12:45:45;;;;;;;43.38;32.65;;;24.50;99.90;;;;;;4992485;28;20089;-59
2022/08/17 12:48:20;;;;;;;42.53;33.03;;;24.50;99.90;;;;;;4992222;28;20042;-60
2022/08/17 12:50:46;;;;;;;46.13;33.72;;;24.50;99.90;;;;;;4992890;28;20437;-61
2022/08/17 12:53:15;;;;;;;48.50;35.08;;;24.60;99.90;;;;;;4975759;28;20045;-59
2022/08/17 12:55:43;;;;;;;52.20;36.33;;;24.60;99.90;;;;;;4972801;28;20046;-59
2022/08/17 12:58:23;;;;;;;51.15;35.85;;;24.50;99.90;;;;;;4973813;28;20118;-61
2022/08/17 13:01:14;;;;;;;51.50;36.03;;;24.50;99.90;;;;;;4953073;29;20043;-58
2022/08/17 13:04:00;;;;;;;51.45;36.90;;;24.50;99.90;;;;;;4952547;29;20059;-61
2022/08/17 13:06:34;;;;;;;55.83;38.88;;;24.40;99.90;;;;;;4952826;29;20081;-61
2022/08/17 13:09:23;;;;;;;52.35;38.97;;;24.50;99.90;;;;;;4952727;29;20130;-62
2022/08/17 13:11:54;;;;;;;55.20;39.63;;;24.50;99.90;;;;;;4952697;29;20039;-58
2022/08/17 13:14:24;;;;;;;55.70;39.47;;;24.70;99.90;;;;;;4935448;29;20050;-60
2022/08/17 13:17:03;;;;;;;52.42;38.80;;;24.50;99.90;;;;;;4936113;29;20066;-61
2022/08/17 13:19:31;;;;;;;57.22;40.38;;;24.50;99.90;;;;;;4951943;29;20050;-62
2022/08/17 13:22:00;;;;;;;52.88;38.42;;;24.50;99.90;;;;;;4951469;29;20055;-59
2022/08/17 13:24:32;;;;;;;54.67;40.67;;;24.50;99.90;;;;;;4950607;29;20432;-59
2022/08/17 13:26:58;;;;;;;50.90;39.53;;;24.50;99.90;;;;;;4957272;28;20081;-60
2022/08/17 13:29:43;;;;;;;54.10;39.20;;;24.50;99.90;;;;;;4970794;28;20078;-59
2022/08/17 13:32:12;;;;;;;53.85;39.00;;;24.40;99.90;;;;;;4970148;28;20456;-58
2022/08/17 13:34:53;;;;;;;52.55;37.60;;;24.40;99.90;;;;;;4970101;28;20467;-58